Time,TemperatureF,DewpointF,PressureIn,WindDirection,WindDirectionDegrees,WindSpeedMPH,WindSpeedGustMPH,Humidity,HourlyPrecipIn,Conditions,Clouds,dailyrainin,SolarRadiationWatts/m^2,SoftwareType,DateUTC
2013-02-21 00:01:00,27.0,20.0,-100.00,SSW,203,4.0,17.0,73,0.00,,,0.00,0.000000,,2013-02-21 07:01:00,
2013-02-21 00:11:00,27.0,20.0,-100.00,SSW,203,4.0,17.0,73,0.00,,,0.00,0.000000,,2013-02-21 07:11:00,
2013-02-21 00:21:00,27.0,20.0,-100.00,SSW,203,4.0,17.0,73,0.00,,,0.00,0.000000,,2013-02-21 07:21:00,
2013-02-21 00:52:00,26.0,17.0,-100.00,SSW,199,7.0,19.0,69,0.00,,,0.00,0.000000,,2013-02-21 07:52:00,
2013-02-21 01:01:00,26.0,17.0,-100.00,SSW,199,7.0,19.0,69,0.00,,,0.00,0.000000,,2013-02-21 08:01:00,
2013-02-21 01:11:00,26.0,17.0,-100.00,SSW,199,7.0,19.0,69,0.00,,,0.00,0.000000,,2013-02-21 08:11:00,
2013-02-21 01:21:00,26.0,17.0,-100.00,SSW,199,7.0,19.0,69,0.00,,,0.00,0.000000,,2013-02-21 08:21:00,
2013-02-21 01:52:00,25.0,18.0,-100.00,WSW,238,9.0,19.0,73,0.00,,,0.00,0.000000,,2013-02-21 08:52:00,
2013-02-21 02:01:00,25.0,18.0,-100.00,WSW,238,9.0,19.0,73,0.00,,,0.00,0.000000,,2013-02-21 09:01:00,
2013-02-21 02:11:00,25.0,18.0,-100.00,WSW,238,9.0,19.0,73,0.00,,,0.00,0.000000,,2013-02-21 09:11:00,
2013-02-21 02:22:00,25.0,18.0,-100.00,WSW,238,9.0,19.0,73,0.00,,,0.00,0.000000,,2013-02-21 09:22:00,
2013-02-21 02:52:00,24.0,19.0,-100.00,WSW,249,10.0,23.0,81,0.00,,,0.00,0.000000,,2013-02-21 09:52:00,
2013-02-21 03:01:00,24.0,19.0,-100.00,WSW,249,10.0,23.0,81,0.00,,,0.00,0.000000,,2013-02-21 10:01:00,
2013-02-21 03:11:00,24.0,19.0,-100.00,WSW,249,10.0,23.0,81,0.00,,,0.00,0.000000,,2013-02-21 10:11:00,
2013-02-21 03:21:00,24.0,19.0,-100.00,WSW,249,10.0,23.0,81,0.00,,,0.00,0.000000,,2013-02-21 10:21:00,
2013-02-21 03:51:00,24.0,21.0,-100.00,SW,223,11.0,23.0,88,0.00,,,0.00,0.000000,,2013-02-21 10:51:00,
2013-02-21 04:01:00,24.0,21.0,-100.00,SW,223,11.0,23.0,88,0.00,,,0.00,0.000000,,2013-02-21 11:01:00,
2013-02-21 04:11:00,24.0,21.0,-100.00,SW,223,11.0,23.0,88,0.00,,,0.00,0.000000,,2013-02-21 11:11:00,
2013-02-21 04:21:00,24.0,21.0,-100.00,SW,223,11.0,23.0,88,0.00,,,0.00,0.000000,,2013-02-21 11:21:00,
2013-02-21 04:52:00,23.0,19.0,-100.00,NNW,335,2.0,22.0,83,0.00,,,0.00,0.000000,,2013-02-21 11:52:00,
2013-02-21 05:01:00,23.0,19.0,-100.00,NNW,335,2.0,22.0,83,0.00,,,0.00,0.000000,,2013-02-21 12:01:00,
2013-02-21 05:11:00,23.0,19.0,-100.00,NNW,335,2.0,22.0,83,0.00,,,0.00,0.000000,,2013-02-21 12:11:00,
2013-02-21 05:21:00,23.0,19.0,-100.00,NNW,335,2.0,22.0,83,0.00,,,0.00,0.000000,,2013-02-21 12:21:00,
2013-02-21 05:53:00,24.0,16.0,-100.00,SW,229,8.0,15.0,71,0.00,,,0.00,0.000000,,2013-02-21 12:53:00,
2013-02-21 06:02:00,24.0,16.0,-100.00,SW,229,8.0,15.0,71,0.00,,,0.00,0.000000,,2013-02-21 13:02:00,
2013-02-21 06:12:00,24.0,16.0,-100.00,SW,229,8.0,15.0,71,0.00,,,0.00,0.000000,,2013-02-21 13:12:00,
2013-02-21 06:22:00,24.0,16.0,-100.00,SW,229,8.0,15.0,71,0.00,,,0.00,0.000000,,2013-02-21 13:22:00,
2013-02-21 06:52:00,24.0,17.0,-100.00,WSW,255,4.0,16.0,73,0.00,,,-99.99,0.000000,,2013-02-21 13:52:00,
2013-02-21 07:02:00,24.0,17.0,-100.00,WSW,255,4.0,16.0,73,0.00,,,-99.99,0.000000,,2013-02-21 14:02:00,
2013-02-21 07:11:00,24.0,17.0,-100.00,WSW,255,4.0,16.0,73,0.00,,,-99.99,0.000000,,2013-02-21 14:11:00,
2013-02-21 07:21:00,24.0,17.0,-100.00,WSW,255,4.0,16.0,73,0.00,,,-99.99,0.000000,,2013-02-21 14:21:00,
2013-02-21 07:52:00,23.0,16.0,-100.00,NNW,327,4.0,13.0,74,0.00,,,-99.99,4.000000,,2013-02-21 14:52:00,
2013-02-21 08:01:00,23.0,16.0,-100.00,NNW,327,4.0,13.0,74,0.00,,,-99.99,4.000000,,2013-02-21 15:01:00,
2013-02-21 08:12:00,23.0,16.0,-100.00,NNW,327,4.0,13.0,74,0.00,,,-99.99,4.000000,,2013-02-21 15:12:00,
2013-02-21 08:21:00,23.0,16.0,-100.00,NNW,327,4.0,13.0,74,0.00,,,-99.99,4.000000,,2013-02-21 15:21:00,
2013-02-21 08:52:00,25.0,16.0,-100.00,ENE,76,0.0,9.0,69,0.00,,,0.00,72.000000,,2013-02-21 15:52:00,
2013-02-21 09:01:00,25.0,16.0,-100.00,ENE,76,0.0,9.0,69,0.00,,,0.00,72.000000,,2013-02-21 16:01:00,
2013-02-21 09:12:00,25.0,16.0,-100.00,ENE,76,0.0,9.0,69,0.00,,,0.00,72.000000,,2013-02-21 16:12:00,
2013-02-21 09:21:00,25.0,16.0,-100.00,ENE,76,0.0,9.0,69,0.00,,,0.00,72.000000,,2013-02-21 16:21:00,
2013-02-21 09:52:00,28.0,17.0,-100.00,ESE,114,1.0,11.0,63,0.00,,,0.00,229.000000,,2013-02-21 16:52:00,
2013-02-21 10:01:00,28.0,17.0,-100.00,ESE,114,1.0,11.0,63,0.00,,,0.00,229.000000,,2013-02-21 17:01:00,
2013-02-21 10:11:00,28.0,17.0,-100.00,ESE,114,1.0,11.0,63,0.00,,,0.00,229.000000,,2013-02-21 17:11:00,
2013-02-21 10:21:00,28.0,17.0,-100.00,ESE,114,1.0,11.0,63,0.00,,,0.00,229.000000,,2013-02-21 17:21:00,
2013-02-21 10:52:00,35.0,20.0,-100.00,SW,217,3.0,9.0,53,0.00,,,0.00,636.000000,,2013-02-21 17:52:00,
2013-02-21 11:02:00,35.0,20.0,-100.00,SW,217,3.0,9.0,53,0.00,,,0.00,636.000000,,2013-02-21 18:02:00,
2013-02-21 11:11:00,35.0,20.0,-100.00,SW,217,3.0,9.0,53,0.00,,,0.00,636.000000,,2013-02-21 18:11:00,
2013-02-21 11:22:00,35.0,20.0,-100.00,SW,217,3.0,9.0,53,0.00,,,0.00,636.000000,,2013-02-21 18:22:00,
2013-02-21 11:52:00,37.0,19.0,-100.00,SSW,210,7.0,11.0,47,0.00,,,0.00,933.000000,,2013-02-21 18:52:00,
2013-02-21 12:01:00,37.0,19.0,-100.00,SSW,210,7.0,11.0,47,0.00,,,0.00,933.000000,,2013-02-21 19:01:00,
2013-02-21 12:12:00,37.0,19.0,-100.00,SSW,210,7.0,11.0,47,0.00,,,0.00,933.000000,,2013-02-21 19:12:00,
2013-02-21 12:21:00,37.0,19.0,-100.00,SSW,210,7.0,11.0,47,0.00,,,0.00,933.000000,,2013-02-21 19:21:00,
2013-02-21 12:52:00,40.0,19.0,-100.00,SW,224,7.0,18.0,43,0.00,,,0.00,1015.000000,,2013-02-21 19:52:00,
2013-02-21 13:01:00,40.0,19.0,-100.00,SW,224,7.0,18.0,43,0.00,,,0.00,1015.000000,,2013-02-21 20:01:00,
2013-02-21 13:11:00,40.0,19.0,-100.00,SW,224,7.0,18.0,43,0.00,,,0.00,1015.000000,,2013-02-21 20:11:00,
2013-02-21 13:21:00,40.0,19.0,-100.00,SW,224,7.0,18.0,43,0.00,,,0.00,1015.000000,,2013-02-21 20:21:00,
2013-02-21 13:53:00,42.0,21.0,-100.00,SW,225,12.0,23.0,42,0.00,,,0.00,923.000000,,2013-02-21 20:53:00,
2013-02-21 14:02:00,42.0,21.0,-100.00,SW,225,12.0,23.0,42,0.00,,,0.00,923.000000,,2013-02-21 21:02:00,
2013-02-21 14:11:00,42.0,21.0,-100.00,SW,225,12.0,23.0,42,0.00,,,0.00,923.000000,,2013-02-21 21:11:00,
2013-02-21 14:21:00,42.0,21.0,-100.00,SW,225,12.0,23.0,42,0.00,,,0.00,923.000000,,2013-02-21 21:21:00,
2013-02-21 14:52:00,42.0,17.0,-100.00,SW,231,10.0,21.0,36,0.00,,,0.00,924.000000,,2013-02-21 21:52:00,
2013-02-21 15:01:00,42.0,17.0,-100.00,SW,231,10.0,21.0,36,0.00,,,0.00,924.000000,,2013-02-21 22:01:00,
2013-02-21 15:11:00,42.0,17.0,-100.00,SW,231,10.0,21.0,36,0.00,,,0.00,924.000000,,2013-02-21 22:11:00,
2013-02-21 15:21:00,42.0,17.0,-100.00,SW,231,10.0,21.0,36,0.00,,,0.00,924.000000,,2013-02-21 22:21:00,
2013-02-21 15:52:00,45.0,16.0,-100.00,SW,225,9.0,19.0,31,0.00,,,0.00,753.000000,,2013-02-21 22:52:00,
2013-02-21 16:01:00,45.0,16.0,-100.00,SW,225,9.0,19.0,31,0.00,,,0.00,753.000000,,2013-02-21 23:01:00,
2013-02-21 16:11:00,45.0,16.0,-100.00,SW,225,9.0,19.0,31,0.00,,,0.00,753.000000,,2013-02-21 23:11:00,
2013-02-21 16:21:00,45.0,16.0,-100.00,SW,225,9.0,19.0,31,0.00,,,0.00,753.000000,,2013-02-21 23:21:00,
2013-02-21 16:52:00,42.0,16.0,-100.00,WSW,251,12.0,21.0,35,0.00,,,0.00,516.000000,,2013-02-21 23:52:00,
2013-02-21 17:01:00,42.0,16.0,-100.00,WSW,251,12.0,21.0,35,0.00,,,0.00,516.000000,,2013-02-22 00:01:00,
2013-02-21 17:11:00,42.0,16.0,-100.00,WSW,251,12.0,21.0,35,0.00,,,0.00,516.000000,,2013-02-22 00:11:00,
2013-02-21 17:21:00,42.0,16.0,-100.00,WSW,251,12.0,21.0,35,0.00,,,0.00,516.000000,,2013-02-22 00:21:00,
2013-02-21 17:52:00,38.0,17.0,-100.00,SW,229,14.0,23.0,42,0.00,,,0.00,242.000000,,2013-02-22 00:52:00,
2013-02-21 18:01:00,38.0,17.0,-100.00,SW,229,14.0,23.0,42,0.00,,,0.00,242.000000,,2013-02-22 01:01:00,
2013-02-21 18:11:00,38.0,17.0,-100.00,SW,229,14.0,23.0,42,0.00,,,0.00,242.000000,,2013-02-22 01:11:00,
2013-02-21 18:21:00,38.0,17.0,-100.00,SW,229,14.0,23.0,42,0.00,,,0.00,242.000000,,2013-02-22 01:21:00,
2013-02-21 18:52:00,33.0,18.0,-100.00,SW,236,12.0,21.0,54,0.00,,,0.00,28.000000,,2013-02-22 01:52:00,
2013-02-21 19:02:00,33.0,18.0,-100.00,SW,236,12.0,21.0,54,0.00,,,0.00,28.000000,,2013-02-22 02:02:00,
2013-02-21 19:11:00,33.0,18.0,-100.00,SW,236,12.0,21.0,54,0.00,,,0.00,28.000000,,2013-02-22 02:11:00,
2013-02-21 19:21:00,33.0,18.0,-100.00,SW,236,12.0,21.0,54,0.00,,,0.00,28.000000,,2013-02-22 02:21:00,
2013-02-21 19:52:00,33.0,21.0,-100.00,SSE,153,3.0,17.0,60,0.00,,,0.00,0.000000,,2013-02-22 02:52:00,
2013-02-21 20:01:00,33.0,21.0,-100.00,SSE,153,3.0,17.0,60,0.00,,,0.00,0.000000,,2013-02-22 03:01:00,
2013-02-21 20:11:00,33.0,21.0,-100.00,SSE,153,3.0,17.0,60,0.00,,,0.00,0.000000,,2013-02-22 03:11:00,
2013-02-21 20:21:00,33.0,21.0,-100.00,SSE,153,3.0,17.0,60,0.00,,,0.00,0.000000,,2013-02-22 03:21:00,
2013-02-21 20:52:00,32.0,21.0,-100.00,ESE,119,0.0,16.0,64,0.00,,,0.00,0.000000,,2013-02-22 03:52:00,
2013-02-21 21:02:00,32.0,21.0,-100.00,ESE,119,0.0,16.0,64,0.00,,,0.00,0.000000,,2013-02-22 04:02:00,
2013-02-21 21:11:00,32.0,21.0,-100.00,ESE,119,0.0,16.0,64,0.00,,,0.00,0.000000,,2013-02-22 04:11:00,
2013-02-21 21:21:00,32.0,21.0,-100.00,ESE,119,0.0,16.0,64,0.00,,,0.00,0.000000,,2013-02-22 04:21:00,
2013-02-21 21:52:00,31.0,20.0,-100.00,West,272,0.0,10.0,62,0.00,,,0.00,0.000000,,2013-02-22 04:52:00,
2013-02-21 22:02:00,31.0,20.0,-100.00,West,272,0.0,10.0,62,0.00,,,0.00,0.000000,,2013-02-22 05:02:00,
2013-02-21 22:12:00,31.0,20.0,-100.00,West,272,0.0,10.0,62,0.00,,,0.00,0.000000,,2013-02-22 05:12:00,
2013-02-21 22:22:00,31.0,20.0,-100.00,West,272,0.0,10.0,62,0.00,,,0.00,0.000000,,2013-02-22 05:22:00,
2013-02-21 22:52:00,32.0,19.0,-100.00,SW,229,2.0,11.0,57,0.00,,,0.00,0.000000,,2013-02-22 05:52:00,
2013-02-21 23:01:00,32.0,19.0,-100.00,SW,229,2.0,11.0,57,0.00,,,0.00,0.000000,,2013-02-22 06:01:00,
2013-02-21 23:12:00,32.0,19.0,-100.00,SW,229,2.0,11.0,57,0.00,,,0.00,0.000000,,2013-02-22 06:12:00,
2013-02-21 23:22:00,32.0,19.0,-100.00,SW,229,2.0,11.0,57,0.00,,,0.00,0.000000,,2013-02-22 06:22:00,
2013-02-21 23:52:00,33.0,17.0,-100.00,North,4,4.0,10.0,51,0.00,,,0.00,0.000000,,2013-02-22 06:52:00,